createdAt,value
2022-12-05T00:02:14.905Z,-5.00
2022-12-05T00:07:23.356Z,-5.00
2022-12-05T00:12:31.883Z,-5.00
2022-12-05T00:17:40.141Z,-5.00
2022-12-05T00:22:48.868Z,-5.00
2022-12-05T00:27:57.217Z,-5.00
2022-12-05T00:33:05.891Z,-5.00
2022-12-05T00:38:14.520Z,-5.10
2022-12-05T00:43:23.173Z,-5.10
2022-12-05T00:48:31.495Z,-5.10
2022-12-05T00:53:40.612Z,-5.10
2022-12-05T00:58:48.843Z,-5.10
2022-12-05T01:03:57.533Z,-5.10
2022-12-05T01:09:05.717Z,-5.00
2022-12-05T01:14:14.472Z,-5.00
2022-12-05T01:19:22.994Z,-5.00
2022-12-05T01:24:31.612Z,-5.00
2022-12-05T01:29:39.855Z,-5.10
2022-12-05T01:34:48.245Z,-5.10
2022-12-05T01:39:56.434Z,-5.00
2022-12-05T01:45:04.543Z,-5.00
2022-12-05T01:50:12.737Z,-5.00
2022-12-05T01:55:20.976Z,-5.00
2022-12-05T02:00:29.110Z,-5.00
2022-12-05T02:05:37.472Z,-5.00
2022-12-05T02:10:45.450Z,-5.10
2022-12-05T02:15:56.922Z,-5.10
2022-12-05T02:21:01.781Z,-5.10
2022-12-05T02:26:10.351Z,-5.20
2022-12-05T02:31:18.594Z,-5.10
2022-12-05T02:36:27.039Z,-5.20
2022-12-05T02:41:35.027Z,-5.30
2022-12-05T02:46:43.190Z,-5.30
2022-12-05T02:51:51.510Z,-5.40
2022-12-05T02:57:00.312Z,-5.40
2022-12-05T03:02:08.686Z,-5.50
2022-12-05T03:07:17.288Z,-5.40
2022-12-05T03:12:25.790Z,-5.40
2022-12-05T03:17:34.334Z,-5.40
2022-12-05T03:22:42.670Z,-5.40
2022-12-05T03:27:51.272Z,-5.40
2022-12-05T03:32:59.350Z,-5.40
2022-12-05T03:38:08.014Z,-5.40
2022-12-05T03:43:16.059Z,-5.40
2022-12-05T03:48:24.446Z,-5.40
2022-12-05T03:53:32.595Z,-5.40
2022-12-05T03:58:41.126Z,-5.40
2022-12-05T04:03:49.411Z,-5.40
2022-12-05T04:08:57.903Z,-5.40
2022-12-05T04:14:05.917Z,-5.40
2022-12-05T04:19:14.204Z,-5.40
2022-12-05T04:24:22.423Z,-5.50
2022-12-05T04:29:30.728Z,-5.50
2022-12-05T04:34:39.066Z,-5.50
2022-12-05T04:39:47.809Z,-5.50
2022-12-05T04:44:55.637Z,-5.50
2022-12-05T04:50:03.903Z,-5.50
2022-12-05T04:55:12.357Z,-5.50
2022-12-05T05:00:20.710Z,-5.50
2022-12-05T05:05:29.395Z,-5.50
2022-12-05T05:10:38.240Z,-5.60
2022-12-05T05:15:46.433Z,-5.60
2022-12-05T05:20:54.923Z,-5.70
2022-12-05T05:26:03.454Z,-5.70
2022-12-05T05:31:12.256Z,-5.70
2022-12-05T05:36:20.677Z,-5.70
2022-12-05T05:41:29.348Z,-5.70
2022-12-05T05:46:38.312Z,-5.80
2022-12-05T05:51:46.686Z,-5.80
2022-12-05T05:56:54.635Z,-5.80
2022-12-05T06:02:02.996Z,-5.60
2022-12-05T06:07:11.000Z,-5.60
2022-12-05T06:12:19.925Z,-5.60
2022-12-05T06:17:28.334Z,-5.70
2022-12-05T06:22:37.156Z,-5.50
2022-12-05T06:27:45.170Z,-5.50
2022-12-05T06:32:53.654Z,-5.50
2022-12-05T06:38:02.074Z,-5.50
2022-12-05T06:43:10.572Z,-5.50
2022-12-05T06:48:18.731Z,-5.50
2022-12-05T06:53:28.609Z,-5.40
2022-12-05T06:58:36.628Z,-5.30
2022-12-05T07:03:45.126Z,-5.20
2022-12-05T07:08:53.258Z,-5.10
2022-12-05T07:14:07.337Z,-4.90
2022-12-05T07:19:09.824Z,-4.80
2022-12-05T07:24:18.592Z,-4.60
2022-12-05T07:29:26.863Z,-4.40
2022-12-05T07:34:35.545Z,-4.20
2022-12-05T07:39:44.064Z,-4.00
2022-12-05T07:44:52.818Z,-3.80
2022-12-05T07:50:01.289Z,-3.60
2022-12-05T07:55:09.901Z,-3.40
2022-12-05T08:00:18.387Z,-3.20
2022-12-05T08:05:26.944Z,-2.90
2022-12-05T08:10:35.233Z,-2.60
2022-12-05T08:15:44.096Z,-2.40
2022-12-05T08:20:52.733Z,-2.20
2022-12-05T08:26:00.995Z,-2.00
2022-12-05T08:31:09.315Z,-1.90
2022-12-05T08:36:18.188Z,-1.60
2022-12-05T08:41:26.268Z,-1.40
2022-12-05T08:46:34.907Z,-1.20
2022-12-05T08:51:44.082Z,-1.00
2022-12-05T08:56:52.852Z,-0.70
2022-12-05T09:02:00.991Z,-0.60
2022-12-05T09:07:09.462Z,-0.50
2022-12-05T09:12:17.490Z,-0.50
2022-12-05T09:17:26.588Z,-0.60
2022-12-05T09:22:34.822Z,-0.60
2022-12-05T09:27:43.671Z,-0.50
2022-12-05T09:32:52.221Z,-0.40
2022-12-05T09:38:01.309Z,-0.30
2022-12-05T09:43:09.992Z,-0.10
2022-12-05T09:48:18.547Z,0.00
2022-12-05T09:53:26.734Z,0.20
2022-12-05T09:58:35.166Z,0.30
2022-12-05T10:03:43.865Z,0.50
2022-12-05T10:08:52.433Z,0.60
2022-12-05T10:14:01.608Z,0.70
2022-12-05T10:19:10.048Z,0.70
2022-12-05T10:24:18.348Z,0.60
2022-12-05T10:29:27.429Z,0.50
2022-12-05T10:34:35.879Z,0.50
2022-12-05T10:39:45.023Z,0.50
2022-12-05T10:44:53.176Z,0.40
2022-12-05T10:50:02.315Z,0.50
2022-12-05T10:55:10.750Z,0.40
2022-12-05T11:00:19.630Z,0.30
2022-12-05T11:05:27.531Z,0.10
2022-12-05T11:10:36.456Z,-0.10
2022-12-05T11:15:45.155Z,-0.10
2022-12-05T11:20:53.857Z,-0.10
2022-12-05T11:26:02.634Z,-0.10
2022-12-05T11:31:11.705Z,-0.10
2022-12-05T11:36:20.234Z,0.00
2022-12-05T11:41:29.187Z,-0.10
2022-12-05T11:46:40.294Z,-0.10
2022-12-05T11:51:39.112Z,-0.20
2022-12-05T11:56:47.384Z,-0.40
2022-12-05T12:01:56.759Z,-0.70
2022-12-05T12:07:05.371Z,-0.80
2022-12-05T12:12:14.092Z,-1.00
2022-12-05T12:17:22.341Z,-1.10
2022-12-05T12:22:31.053Z,-1.10
2022-12-05T12:27:39.357Z,-1.20
2022-12-05T12:32:47.738Z,-1.30
2022-12-05T12:37:56.110Z,-1.40
2022-12-05T12:43:06.190Z,-1.60
2022-12-05T12:48:04.439Z,-1.70
2022-12-05T12:53:13.146Z,-1.90
2022-12-05T12:58:21.706Z,-2.00
2022-12-05T13:03:30.446Z,-2.20
2022-12-05T13:08:39.413Z,-2.30
2022-12-05T13:13:47.937Z,-2.50
2022-12-05T13:18:56.516Z,-2.60
2022-12-05T13:24:05.098Z,-2.70
2022-12-05T13:29:13.463Z,-2.90
2022-12-05T13:34:22.125Z,-3.10
2022-12-05T13:39:29.988Z,-3.30
2022-12-05T13:44:38.592Z,-3.50
2022-12-05T13:49:47.226Z,-3.60
2022-12-05T13:54:55.700Z,-3.80
2022-12-05T14:00:03.896Z,-3.90
2022-12-05T14:05:12.332Z,-4.10
2022-12-05T14:10:20.421Z,-4.30
2022-12-05T14:15:28.892Z,-4.40
2022-12-05T14:20:37.183Z,-4.40
2022-12-05T14:25:57.342Z,-4.60
2022-12-05T14:30:53.448Z,-4.70
2022-12-05T14:36:02.202Z,-4.70
2022-12-05T14:41:10.221Z,-4.80
2022-12-05T14:46:18.794Z,-4.60
2022-12-05T14:51:27.095Z,-4.70
2022-12-05T14:56:35.571Z,-4.80
2022-12-05T15:01:43.966Z,-4.90
2022-12-05T15:06:52.262Z,-5.00
2022-12-05T15:12:04.766Z,-5.10
2022-12-05T15:17:08.508Z,-5.10
2022-12-05T15:22:16.498Z,-5.20
2022-12-05T15:27:24.795Z,-5.30
2022-12-05T15:32:32.911Z,-5.40
2022-12-05T15:37:41.272Z,-5.40
2022-12-05T15:42:49.543Z,-5.50
2022-12-05T15:47:58.045Z,-5.50
2022-12-05T15:53:06.217Z,-5.60
2022-12-05T15:58:14.610Z,-5.60
2022-12-05T16:03:22.893Z,-5.70
2022-12-05T16:08:31.572Z,-5.70
2022-12-05T16:13:40.536Z,-5.70
2022-12-05T16:18:49.432Z,-5.70
2022-12-05T16:23:57.626Z,-5.80
2022-12-05T16:29:06.399Z,-5.80
2022-12-05T16:34:14.788Z,-5.80
2022-12-05T16:39:23.301Z,-5.50
2022-12-05T16:44:32.170Z,-5.50
2022-12-05T16:49:45.976Z,-5.60
2022-12-05T16:54:48.408Z,-5.70
2022-12-05T16:59:57.207Z,-5.70
2022-12-05T17:05:05.724Z,-5.80
2022-12-05T17:10:14.750Z,-5.80
2022-12-05T17:15:22.739Z,-5.60
2022-12-05T17:20:31.384Z,-5.60
2022-12-05T17:25:39.720Z,-5.60
2022-12-05T17:30:48.049Z,-5.70
2022-12-05T17:35:56.586Z,-5.70
2022-12-05T17:41:07.341Z,-5.80
2022-12-05T17:46:13.824Z,-5.80
2022-12-05T17:51:22.547Z,-5.80
2022-12-05T17:56:30.975Z,-5.80
2022-12-05T18:01:39.098Z,-5.80
2022-12-05T18:06:47.247Z,-5.80
2022-12-05T18:11:56.118Z,-5.80
2022-12-05T18:17:04.375Z,-5.80
2022-12-05T18:22:14.671Z,-5.80
2022-12-05T18:27:20.928Z,-5.80
2022-12-05T18:32:29.155Z,-5.70
2022-12-05T18:37:37.181Z,-5.70
2022-12-05T18:42:45.765Z,-5.70
2022-12-05T18:48:00.421Z,-5.70
2022-12-05T18:53:02.486Z,-5.70
2022-12-05T18:58:10.864Z,-5.70
2022-12-05T19:03:19.181Z,-5.70
2022-12-05T19:08:27.670Z,-5.70
2022-12-05T19:13:36.337Z,-5.70
2022-12-05T19:18:44.585Z,-5.70
2022-12-05T19:23:53.451Z,-5.70
2022-12-05T19:29:02.147Z,-5.70
2022-12-05T19:34:11.323Z,-5.80
2022-12-05T19:39:19.647Z,-5.80
2022-12-05T19:44:28.221Z,-5.90
2022-12-05T19:49:36.819Z,-5.90
2022-12-05T19:54:45.590Z,-6.00
2022-12-05T19:59:53.865Z,-6.00
2022-12-05T20:05:02.367Z,-6.10
2022-12-05T20:10:10.550Z,-6.10
2022-12-05T20:15:19.002Z,-6.20
2022-12-05T20:20:27.052Z,-6.20
2022-12-05T20:25:35.600Z,-6.30
2022-12-05T20:30:43.713Z,-6.30
2022-12-05T20:35:52.088Z,-6.30
2022-12-05T20:41:00.240Z,-6.40
2022-12-05T20:46:08.716Z,-6.40
2022-12-05T20:51:17.110Z,-6.40
2022-12-05T20:56:25.751Z,-6.50
2022-12-05T21:01:34.377Z,-6.50
2022-12-05T21:06:42.049Z,-6.60
2022-12-05T21:11:50.052Z,-6.60
2022-12-05T21:16:58.783Z,-6.70
2022-12-05T21:22:06.853Z,-6.70
2022-12-05T21:27:15.358Z,-6.70
2022-12-05T21:32:23.698Z,-6.80
2022-12-05T21:37:32.183Z,-6.80
2022-12-05T21:42:40.282Z,-6.80
2022-12-05T21:47:48.686Z,-6.80
2022-12-05T21:52:56.924Z,-6.80
2022-12-05T21:58:05.442Z,-6.90
2022-12-05T22:03:13.595Z,-6.90
2022-12-05T22:08:22.299Z,-6.90
2022-12-05T22:13:30.248Z,-6.90
2022-12-05T22:18:38.714Z,-6.90
2022-12-05T22:23:46.721Z,-6.90
2022-12-05T22:28:55.228Z,-7.00
2022-12-05T22:34:03.476Z,-7.00
2022-12-05T22:39:12.033Z,-7.00
2022-12-05T22:44:20.428Z,-7.00
2022-12-05T22:49:29.152Z,-6.90
2022-12-05T22:54:37.475Z,-6.80
2022-12-05T22:59:45.919Z,-6.60
2022-12-05T23:04:54.236Z,-6.40
2022-12-05T23:10:02.671Z,-6.20
2022-12-05T23:15:10.685Z,-6.10
2022-12-05T23:20:18.973Z,-5.90
2022-12-05T23:25:27.211Z,-5.80
2022-12-05T23:30:35.692Z,-5.80
2022-12-05T23:35:43.903Z,-5.70
2022-12-05T23:40:52.756Z,-5.60
2022-12-05T23:46:01.334Z,-5.60
2022-12-05T23:51:10.176Z,-5.50
2022-12-05T23:56:18.739Z,-5.50
